sensor_id;sensor_type;location;lat;lon;timestamp;P1;durP1;ratioP1;P2;durP2;ratioP2
47455;SDS011;33202;48.512;-2.780;2023-10-19T00:01:13;10.30;;;1.73;;
47455;SDS011;33202;48.512;-2.780;2023-10-19T00:03:40;7.00;;;1.30;;
47455;SDS011;33202;48.512;-2.780;2023-10-19T00:06:06;9.40;;;1.80;;
47455;SDS011;33202;48.512;-2.780;2023-10-19T00:08:33;9.57;;;1.52;;
47455;SDS011;33202;48.512;-2.780;2023-10-19T00:11:17;8.38;;;1.83;;
47455;SDS011;33202;48.512;-2.780;2023-10-19T00:13:47;6.82;;;1.60;;
47455;SDS011;33202;48.512;-2.780;2023-10-19T00:16:19;7.97;;;1.55;;
47455;SDS011;33202;48.512;-2.780;2023-10-19T00:18:51;11.38;;;2.63;;
47455;SDS011;33202;48.512;-2.780;2023-10-19T00:21:18;13.27;;;2.42;;
47455;SDS011;33202;48.512;-2.780;2023-10-19T00:23:54;10.05;;;2.50;;
47455;SDS011;33202;48.512;-2.780;2023-10-19T00:26:22;17.90;;;2.65;;
47455;SDS011;33202;48.512;-2.780;2023-10-19T00:28:50;12.77;;;3.00;;
47455;SDS011;33202;48.512;-2.780;2023-10-19T00:31:26;16.23;;;2.85;;
47455;SDS011;33202;48.512;-2.780;2023-10-19T00:33:52;12.93;;;2.97;;
47455;SDS011;33202;48.512;-2.780;2023-10-19T00:36:22;21.33;;;3.42;;
47455;SDS011;33202;48.512;-2.780;2023-10-19T00:38:50;15.73;;;2.72;;
47455;SDS011;33202;48.512;-2.780;2023-10-19T00:41:22;15.15;;;3.10;;
47455;SDS011;33202;48.512;-2.780;2023-10-19T00:43:58;21.05;;;3.10;;
47455;SDS011;33202;48.512;-2.780;2023-10-19T00:46:36;17.55;;;2.65;;
47455;SDS011;33202;48.512;-2.780;2023-10-19T00:49:09;16.67;;;3.13;;
47455;SDS011;33202;48.512;-2.780;2023-10-19T00:51:41;18.08;;;2.80;;
47455;SDS011;33202;48.512;-2.780;2023-10-19T00:54:18;16.98;;;2.83;;
47455;SDS011;33202;48.512;-2.780;2023-10-19T00:57:06;12.40;;;2.55;;
47455;SDS011;33202;48.512;-2.780;2023-10-19T00:59:34;20.60;;;3.63;;
47455;SDS011;33202;48.512;-2.780;2023-10-19T01:02:03;14.90;;;3.10;;
47455;SDS011;33202;48.512;-2.780;2023-10-19T01:04:48;14.68;;;2.60;;
47455;SDS011;33202;48.512;-2.780;2023-10-19T01:07:24;13.02;;;2.60;;
47455;SDS011;33202;48.512;-2.780;2023-10-19T01:10:02;20.33;;;3.30;;
47455;SDS011;33202;48.512;-2.780;2023-10-19T01:12:37;17.13;;;3.45;;
47455;SDS011;33202;48.512;-2.780;2023-10-19T01:15:12;18.52;;;3.20;;
47455;SDS011;33202;48.512;-2.780;2023-10-19T01:17:40;19.67;;;4.32;;
47455;SDS011;33202;48.512;-2.780;2023-10-19T01:20:09;19.92;;;3.67;;
47455;SDS011;33202;48.512;-2.780;2023-10-19T01:23:02;17.40;;;3.60;;
47455;SDS011;33202;48.512;-2.780;2023-10-19T01:25:32;24.65;;;4.07;;
47455;SDS011;33202;48.512;-2.780;2023-10-19T01:28:07;20.85;;;3.70;;
47455;SDS011;33202;48.512;-2.780;2023-10-19T01:30:33;18.58;;;4.13;;
47455;SDS011;33202;48.512;-2.780;2023-10-19T01:33:00;18.63;;;3.83;;
47455;SDS011;33202;48.512;-2.780;2023-10-19T01:35:26;21.92;;;3.65;;
47455;SDS011;33202;48.512;-2.780;2023-10-19T01:38:12;16.50;;;3.28;;
47455;SDS011;33202;48.512;-2.780;2023-10-19T01:40:38;15.95;;;3.40;;
47455;SDS011;33202;48.512;-2.780;2023-10-19T01:43:11;17.70;;;3.42;;
47455;SDS011;33202;48.512;-2.780;2023-10-19T01:45:45;14.25;;;2.95;;
47455;SDS011;33202;48.512;-2.780;2023-10-19T01:48:11;15.25;;;3.25;;
47455;SDS011;33202;48.512;-2.780;2023-10-19T01:50:38;11.80;;;2.70;;
47455;SDS011;33202;48.512;-2.780;2023-10-19T01:53:04;17.40;;;3.13;;
47455;SDS011;33202;48.512;-2.780;2023-10-19T01:55:40;16.40;;;3.45;;
47455;SDS011;33202;48.512;-2.780;2023-10-19T01:58:06;16.10;;;2.80;;
47455;SDS011;33202;48.512;-2.780;2023-10-19T02:00:33;18.77;;;3.33;;
47455;SDS011;33202;48.512;-2.780;2023-10-19T02:03:05;15.68;;;3.10;;
47455;SDS011;33202;48.512;-2.780;2023-10-19T02:05:32;17.05;;;3.33;;
47455;SDS011;33202;48.512;-2.780;2023-10-19T02:08:04;13.82;;;4.13;;
47455;SDS011;33202;48.512;-2.780;2023-10-19T02:10:32;22.48;;;3.17;;
47455;SDS011;33202;48.512;-2.780;2023-10-19T02:12:58;13.98;;;3.60;;
47455;SDS011;33202;48.512;-2.780;2023-10-19T02:15:24;16.33;;;2.97;;
47455;SDS011;33202;48.512;-2.780;2023-10-19T02:17:50;18.83;;;3.15;;
47455;SDS011;33202;48.512;-2.780;2023-10-19T02:20:19;16.52;;;3.28;;
47455;SDS011;33202;48.512;-2.780;2023-10-19T02:22:49;20.95;;;3.60;;
47455;SDS011;33202;48.512;-2.780;2023-10-19T02:25:17;20.75;;;4.32;;
47455;SDS011;33202;48.512;-2.780;2023-10-19T02:27:44;17.63;;;3.40;;
47455;SDS011;33202;48.512;-2.780;2023-10-19T02:30:10;21.77;;;3.55;;
47455;SDS011;33202;48.512;-2.780;2023-10-19T02:32:36;14.90;;;3.23;;
47455;SDS011;33202;48.512;-2.780;2023-10-19T02:35:02;16.85;;;2.97;;
47455;SDS011;33202;48.512;-2.780;2023-10-19T02:37:29;15.75;;;3.10;;
47455;SDS011;33202;48.512;-2.780;2023-10-19T02:39:55;20.30;;;3.88;;
47455;SDS011;33202;48.512;-2.780;2023-10-19T02:42:21;20.80;;;3.80;;
47455;SDS011;33202;48.512;-2.780;2023-10-19T02:44:48;24.58;;;4.22;;
47455;SDS011;33202;48.512;-2.780;2023-10-19T02:49:42;16.63;;;3.80;;
47455;SDS011;33202;48.512;-2.780;2023-10-19T02:52:15;24.60;;;4.65;;
47455;SDS011;33202;48.512;-2.780;2023-10-19T02:54:41;23.80;;;4.55;;
47455;SDS011;33202;48.512;-2.780;2023-10-19T02:57:07;18.52;;;4.10;;
47455;SDS011;33202;48.512;-2.780;2023-10-19T02:59:37;24.17;;;4.10;;
47455;SDS011;33202;48.512;-2.780;2023-10-19T03:02:04;17.77;;;3.28;;
47455;SDS011;33202;48.512;-2.780;2023-10-19T03:04:36;18.02;;;3.90;;
47455;SDS011;33202;48.512;-2.780;2023-10-19T03:07:02;19.00;;;3.33;;
47455;SDS011;33202;48.512;-2.780;2023-10-19T03:09:29;17.58;;;3.30;;
47455;SDS011;33202;48.512;-2.780;2023-10-19T03:11:56;20.15;;;3.58;;
47455;SDS011;33202;48.512;-2.780;2023-10-19T03:14:29;18.15;;;3.78;;
47455;SDS011;33202;48.512;-2.780;2023-10-19T03:16:56;22.23;;;4.27;;
47455;SDS011;33202;48.512;-2.780;2023-10-19T03:19:24;25.15;;;4.10;;
47455;SDS011;33202;48.512;-2.780;2023-10-19T03:21:50;18.52;;;3.75;;
47455;SDS011;33202;48.512;-2.780;2023-10-19T03:24:17;19.67;;;3.75;;
47455;SDS011;33202;48.512;-2.780;2023-10-19T03:27:04;18.20;;;3.83;;
47455;SDS011;33202;48.512;-2.780;2023-10-19T03:29:46;17.42;;;3.25;;
47455;SDS011;33202;48.512;-2.780;2023-10-19T03:32:21;23.02;;;3.78;;
47455;SDS011;33202;48.512;-2.780;2023-10-19T03:34:51;16.80;;;3.38;;
47455;SDS011;33202;48.512;-2.780;2023-10-19T03:37:21;21.75;;;3.70;;
47455;SDS011;33202;48.512;-2.780;2023-10-19T03:39:47;17.60;;;2.85;;
47455;SDS011;33202;48.512;-2.780;2023-10-19T03:42:13;21.17;;;3.55;;
47455;SDS011;33202;48.512;-2.780;2023-10-19T03:44:39;20.55;;;4.55;;
47455;SDS011;33202;48.512;-2.780;2023-10-19T03:47:08;18.17;;;4.45;;
47455;SDS011;33202;48.512;-2.780;2023-10-19T03:49:39;21.88;;;3.38;;
47455;SDS011;33202;48.512;-2.780;2023-10-19T03:52:06;15.55;;;3.53;;
47455;SDS011;33202;48.512;-2.780;2023-10-19T03:54:35;19.05;;;3.20;;
47455;SDS011;33202;48.512;-2.780;2023-10-19T03:57:08;19.05;;;3.13;;
47455;SDS011;33202;48.512;-2.780;2023-10-19T03:59:40;25.35;;;3.83;;
47455;SDS011;33202;48.512;-2.780;2023-10-19T04:02:09;20.10;;;3.55;;
47455;SDS011;33202;48.512;-2.780;2023-10-19T04:04:38;20.38;;;3.60;;
47455;SDS011;33202;48.512;-2.780;2023-10-19T04:07:08;18.85;;;3.30;;
47455;SDS011;33202;48.512;-2.780;2023-10-19T04:09:55;20.30;;;3.40;;
47455;SDS011;33202;48.512;-2.780;2023-10-19T04:12:34;21.65;;;4.35;;
47455;SDS011;33202;48.512;-2.780;2023-10-19T04:15:02;14.95;;;3.35;;
47455;SDS011;33202;48.512;-2.780;2023-10-19T04:17:41;19.48;;;3.92;;
47455;SDS011;33202;48.512;-2.780;2023-10-19T04:20:10;15.95;;;3.63;;
47455;SDS011;33202;48.512;-2.780;2023-10-19T04:22:39;21.38;;;3.50;;
47455;SDS011;33202;48.512;-2.780;2023-10-19T04:25:05;21.42;;;3.47;;
47455;SDS011;33202;48.512;-2.780;2023-10-19T04:30:01;19.07;;;3.23;;
47455;SDS011;33202;48.512;-2.780;2023-10-19T04:32:27;19.30;;;4.07;;
47455;SDS011;33202;48.512;-2.780;2023-10-19T04:34:53;21.20;;;4.28;;
47455;SDS011;33202;48.512;-2.780;2023-10-19T04:37:19;26.42;;;4.60;;
47455;SDS011;33202;48.512;-2.780;2023-10-19T04:39:48;22.52;;;4.03;;
47455;SDS011;33202;48.512;-2.780;2023-10-19T04:42:15;20.30;;;3.35;;
47455;SDS011;33202;48.512;-2.780;2023-10-19T04:44:41;25.02;;;4.30;;
47455;SDS011;33202;48.512;-2.780;2023-10-19T04:47:07;19.38;;;4.07;;
47455;SDS011;33202;48.512;-2.780;2023-10-19T04:49:33;21.20;;;4.35;;
47455;SDS011;33202;48.512;-2.780;2023-10-19T04:51:59;24.05;;;4.75;;
47455;SDS011;33202;48.512;-2.780;2023-10-19T04:54:25;23.02;;;4.60;;
47455;SDS011;33202;48.512;-2.780;2023-10-19T04:56:52;22.35;;;4.35;;
47455;SDS011;33202;48.512;-2.780;2023-10-19T04:59:20;22.73;;;3.60;;
47455;SDS011;33202;48.512;-2.780;2023-10-19T05:01:46;24.65;;;4.40;;
47455;SDS011;33202;48.512;-2.780;2023-10-19T05:04:12;25.52;;;4.30;;
47455;SDS011;33202;48.512;-2.780;2023-10-19T05:06:38;23.08;;;4.70;;
47455;SDS011;33202;48.512;-2.780;2023-10-19T05:09:04;19.23;;;3.70;;
47455;SDS011;33202;48.512;-2.780;2023-10-19T05:11:31;22.30;;;4.43;;
47455;SDS011;33202;48.512;-2.780;2023-10-19T05:13:57;23.35;;;4.03;;
47455;SDS011;33202;48.512;-2.780;2023-10-19T05:16:23;23.45;;;5.07;;
47455;SDS011;33202;48.512;-2.780;2023-10-19T05:18:49;20.88;;;4.43;;
47455;SDS011;33202;48.512;-2.780;2023-10-19T05:21:15;21.92;;;4.18;;
47455;SDS011;33202;48.512;-2.780;2023-10-19T05:23:41;28.83;;;4.45;;
47455;SDS011;33202;48.512;-2.780;2023-10-19T05:26:07;21.65;;;3.97;;
47455;SDS011;33202;48.512;-2.780;2023-10-19T05:28:33;29.75;;;4.72;;
47455;SDS011;33202;48.512;-2.780;2023-10-19T05:30:59;20.35;;;4.45;;
47455;SDS011;33202;48.512;-2.780;2023-10-19T05:33:27;19.83;;;4.80;;
47455;SDS011;33202;48.512;-2.780;2023-10-19T05:35:54;29.60;;;4.82;;
47455;SDS011;33202;48.512;-2.780;2023-10-19T05:38:20;27.45;;;4.72;;
47455;SDS011;33202;48.512;-2.780;2023-10-19T05:40:47;20.65;;;4.72;;
47455;SDS011;33202;48.512;-2.780;2023-10-19T05:43:15;25.80;;;4.95;;
47455;SDS011;33202;48.512;-2.780;2023-10-19T05:45:41;23.50;;;4.28;;
47455;SDS011;33202;48.512;-2.780;2023-10-19T05:48:07;21.50;;;5.63;;
47455;SDS011;33202;48.512;-2.780;2023-10-19T05:50:33;25.20;;;5.05;;
47455;SDS011;33202;48.512;-2.780;2023-10-19T05:53:00;17.53;;;4.50;;
47455;SDS011;33202;48.512;-2.780;2023-10-19T05:55:26;25.95;;;5.70;;
47455;SDS011;33202;48.512;-2.780;2023-10-19T05:57:52;22.08;;;5.43;;
47455;SDS011;33202;48.512;-2.780;2023-10-19T06:00:18;24.95;;;3.75;;
47455;SDS011;33202;48.512;-2.780;2023-10-19T06:02:46;19.30;;;5.20;;
47455;SDS011;33202;48.512;-2.780;2023-10-19T06:05:14;25.88;;;4.78;;
47455;SDS011;33202;48.512;-2.780;2023-10-19T06:07:43;20.80;;;3.90;;
47455;SDS011;33202;48.512;-2.780;2023-10-19T06:10:13;22.48;;;3.70;;
47455;SDS011;33202;48.512;-2.780;2023-10-19T06:12:45;15.77;;;3.00;;
47455;SDS011;33202;48.512;-2.780;2023-10-19T06:15:11;19.95;;;3.72;;
47455;SDS011;33202;48.512;-2.780;2023-10-19T06:17:38;24.13;;;4.47;;
47455;SDS011;33202;48.512;-2.780;2023-10-19T06:20:06;16.83;;;3.55;;
47455;SDS011;33202;48.512;-2.780;2023-10-19T06:22:34;18.77;;;3.90;;
47455;SDS011;33202;48.512;-2.780;2023-10-19T06:25:00;12.80;;;3.33;;
47455;SDS011;33202;48.512;-2.780;2023-10-19T06:27:26;12.25;;;2.80;;
47455;SDS011;33202;48.512;-2.780;2023-10-19T06:29:52;10.95;;;2.80;;
47455;SDS011;33202;48.512;-2.780;2023-10-19T06:32:18;10.98;;;2.40;;
47455;SDS011;33202;48.512;-2.780;2023-10-19T06:34:44;11.57;;;2.22;;
47455;SDS011;33202;48.512;-2.780;2023-10-19T06:37:10;10.93;;;2.50;;
47455;SDS011;33202;48.512;-2.780;2023-10-19T06:39:37;12.43;;;2.75;;
47455;SDS011;33202;48.512;-2.780;2023-10-19T06:42:06;8.55;;;1.75;;
47455;SDS011;33202;48.512;-2.780;2023-10-19T06:44:35;12.35;;;2.80;;
47455;SDS011;33202;48.512;-2.780;2023-10-19T06:47:01;13.82;;;2.55;;
47455;SDS011;33202;48.512;-2.780;2023-10-19T06:49:29;9.45;;;2.10;;
47455;SDS011;33202;48.512;-2.780;2023-10-19T06:51:55;14.27;;;2.65;;
47455;SDS011;33202;48.512;-2.780;2023-10-19T06:54:21;14.93;;;2.93;;
47455;SDS011;33202;48.512;-2.780;2023-10-19T06:56:47;15.73;;;3.03;;
47455;SDS011;33202;48.512;-2.780;2023-10-19T06:59:13;12.77;;;2.90;;
47455;SDS011;33202;48.512;-2.780;2023-10-19T07:01:39;15.52;;;3.35;;
47455;SDS011;33202;48.512;-2.780;2023-10-19T07:04:05;15.07;;;2.58;;
47455;SDS011;33202;48.512;-2.780;2023-10-19T07:06:31;14.38;;;2.67;;
47455;SDS011;33202;48.512;-2.780;2023-10-19T07:08:57;15.95;;;2.92;;
47455;SDS011;33202;48.512;-2.780;2023-10-19T07:11:23;16.10;;;3.00;;
47455;SDS011;33202;48.512;-2.780;2023-10-19T07:13:49;13.05;;;3.00;;
47455;SDS011;33202;48.512;-2.780;2023-10-19T07:16:15;13.85;;;3.33;;
47455;SDS011;33202;48.512;-2.780;2023-10-19T07:21:09;15.90;;;3.47;;
47455;SDS011;33202;48.512;-2.780;2023-10-19T07:23:35;15.43;;;3.20;;
47455;SDS011;33202;48.512;-2.780;2023-10-19T07:26:03;16.15;;;2.90;;
47455;SDS011;33202;48.512;-2.780;2023-10-19T07:28:31;16.92;;;3.53;;
47455;SDS011;33202;48.512;-2.780;2023-10-19T07:30:57;16.77;;;3.10;;
47455;SDS011;33202;48.512;-2.780;2023-10-19T07:33:24;17.38;;;3.35;;
47455;SDS011;33202;48.512;-2.780;2023-10-19T07:35:51;19.45;;;3.60;;
47455;SDS011;33202;48.512;-2.780;2023-10-19T07:38:20;21.48;;;3.63;;
47455;SDS011;33202;48.512;-2.780;2023-10-19T07:40:47;21.35;;;4.43;;
47455;SDS011;33202;48.512;-2.780;2023-10-19T07:43:13;16.50;;;3.08;;
47455;SDS011;33202;48.512;-2.780;2023-10-19T07:45:39;15.30;;;2.75;;
47455;SDS011;33202;48.512;-2.780;2023-10-19T07:48:05;15.02;;;4.22;;
47455;SDS011;33202;48.512;-2.780;2023-10-19T07:50:35;15.70;;;3.03;;
47455;SDS011;33202;48.512;-2.780;2023-10-19T07:53:01;18.73;;;3.83;;
47455;SDS011;33202;48.512;-2.780;2023-10-19T07:55:28;21.98;;;4.05;;
47455;SDS011;33202;48.512;-2.780;2023-10-19T07:57:56;26.40;;;3.97;;
47455;SDS011;33202;48.512;-2.780;2023-10-19T08:00:25;16.98;;;3.55;;
47455;SDS011;33202;48.512;-2.780;2023-10-19T08:02:54;18.83;;;4.43;;
47455;SDS011;33202;48.512;-2.780;2023-10-19T08:05:20;30.33;;;3.53;;
47455;SDS011;33202;48.512;-2.780;2023-10-19T08:07:46;16.80;;;3.22;;
47455;SDS011;33202;48.512;-2.780;2023-10-19T08:10:13;20.83;;;4.47;;
47455;SDS011;33202;48.512;-2.780;2023-10-19T08:12:40;18.33;;;3.85;;
47455;SDS011;33202;48.512;-2.780;2023-10-19T08:15:07;23.02;;;4.53;;
47455;SDS011;33202;48.512;-2.780;2023-10-19T08:17:36;27.15;;;4.68;;
47455;SDS011;33202;48.512;-2.780;2023-10-19T08:20:03;22.23;;;5.05;;
47455;SDS011;33202;48.512;-2.780;2023-10-19T08:22:33;25.00;;;4.63;;
47455;SDS011;33202;48.512;-2.780;2023-10-19T08:25:01;24.05;;;4.90;;
47455;SDS011;33202;48.512;-2.780;2023-10-19T08:27:29;28.35;;;4.80;;
47455;SDS011;33202;48.512;-2.780;2023-10-19T08:29:56;19.02;;;4.38;;
47455;SDS011;33202;48.512;-2.780;2023-10-19T08:32:22;28.77;;;5.80;;
47455;SDS011;33202;48.512;-2.780;2023-10-19T08:34:48;24.08;;;4.93;;
47455;SDS011;33202;48.512;-2.780;2023-10-19T08:37:14;23.65;;;4.15;;
47455;SDS011;33202;48.512;-2.780;2023-10-19T08:39:40;29.17;;;5.72;;
47455;SDS011;33202;48.512;-2.780;2023-10-19T08:42:08;23.75;;;4.05;;
47455;SDS011;33202;48.512;-2.780;2023-10-19T08:44:35;29.90;;;5.85;;
47455;SDS011;33202;48.512;-2.780;2023-10-19T08:47:01;29.15;;;4.63;;
47455;SDS011;33202;48.512;-2.780;2023-10-19T08:49:30;23.40;;;3.75;;
47455;SDS011;33202;48.512;-2.780;2023-10-19T08:51:56;25.23;;;5.15;;
47455;SDS011;33202;48.512;-2.780;2023-10-19T08:56:51;25.70;;;3.97;;
47455;SDS011;33202;48.512;-2.780;2023-10-19T08:59:17;20.08;;;3.67;;
47455;SDS011;33202;48.512;-2.780;2023-10-19T09:01:43;17.98;;;3.50;;
47455;SDS011;33202;48.512;-2.780;2023-10-19T09:04:12;18.65;;;3.95;;
47455;SDS011;33202;48.512;-2.780;2023-10-19T09:06:39;17.70;;;3.22;;
47455;SDS011;33202;48.512;-2.780;2023-10-19T09:09:12;16.42;;;3.60;;
47455;SDS011;33202;48.512;-2.780;2023-10-19T09:11:50;20.23;;;4.47;;
47455;SDS011;33202;48.512;-2.780;2023-10-19T09:14:32;20.27;;;4.47;;
47455;SDS011;33202;48.512;-2.780;2023-10-19T09:16:58;17.15;;;3.35;;
47455;SDS011;33202;48.512;-2.780;2023-10-19T09:19:44;23.38;;;3.85;;
47455;SDS011;33202;48.512;-2.780;2023-10-19T09:22:13;14.88;;;3.40;;
47455;SDS011;33202;48.512;-2.780;2023-10-19T09:24:50;16.02;;;3.00;;
47455;SDS011;33202;48.512;-2.780;2023-10-19T09:27:21;18.98;;;3.63;;
47455;SDS011;33202;48.512;-2.780;2023-10-19T09:29:48;18.35;;;3.88;;
47455;SDS011;33202;48.512;-2.780;2023-10-19T09:32:16;18.60;;;4.03;;
47455;SDS011;33202;48.512;-2.780;2023-10-19T09:34:42;22.77;;;3.53;;
47455;SDS011;33202;48.512;-2.780;2023-10-19T09:37:10;23.08;;;4.25;;
47455;SDS011;33202;48.512;-2.780;2023-10-19T09:39:36;24.70;;;4.88;;
47455;SDS011;33202;48.512;-2.780;2023-10-19T09:42:05;21.98;;;3.88;;
47455;SDS011;33202;48.512;-2.780;2023-10-19T09:44:39;21.88;;;3.97;;
47455;SDS011;33202;48.512;-2.780;2023-10-19T09:47:13;22.40;;;4.13;;
47455;SDS011;33202;48.512;-2.780;2023-10-19T09:49:41;19.42;;;4.55;;
47455;SDS011;33202;48.512;-2.780;2023-10-19T09:52:08;17.80;;;3.92;;
47455;SDS011;33202;48.512;-2.780;2023-10-19T09:54:42;18.92;;;4.05;;
47455;SDS011;33202;48.512;-2.780;2023-10-19T09:57:13;17.35;;;3.47;;
47455;SDS011;33202;48.512;-2.780;2023-10-19T09:59:42;14.52;;;3.17;;
47455;SDS011;33202;48.512;-2.780;2023-10-19T10:02:10;19.85;;;4.40;;
47455;SDS011;33202;48.512;-2.780;2023-10-19T10:04:38;20.83;;;4.35;;
47455;SDS011;33202;48.512;-2.780;2023-10-19T10:07:05;21.55;;;4.10;;
47455;SDS011;33202;48.512;-2.780;2023-10-19T10:09:35;24.15;;;4.30;;
47455;SDS011;33202;48.512;-2.780;2023-10-19T10:12:17;15.40;;;3.45;;
47455;SDS011;33202;48.512;-2.780;2023-10-19T10:15:03;20.73;;;5.03;;
47455;SDS011;33202;48.512;-2.780;2023-10-19T10:17:36;17.23;;;3.78;;
47455;SDS011;33202;48.512;-2.780;2023-10-19T10:22:43;16.13;;;3.30;;
47455;SDS011;33202;48.512;-2.780;2023-10-19T10:25:28;19.95;;;3.67;;
47455;SDS011;33202;48.512;-2.780;2023-10-19T10:27:55;19.88;;;4.28;;
47455;SDS011;33202;48.512;-2.780;2023-10-19T10:30:21;17.08;;;3.22;;
47455;SDS011;33202;48.512;-2.780;2023-10-19T10:32:49;19.48;;;3.55;;
47455;SDS011;33202;48.512;-2.780;2023-10-19T10:38:05;21.55;;;4.03;;
47455;SDS011;33202;48.512;-2.780;2023-10-19T10:40:42;22.90;;;4.80;;
47455;SDS011;33202;48.512;-2.780;2023-10-19T10:43:08;23.20;;;4.22;;
47455;SDS011;33202;48.512;-2.780;2023-10-19T10:45:35;15.57;;;3.63;;
47455;SDS011;33202;48.512;-2.780;2023-10-19T10:48:01;23.27;;;5.05;;
47455;SDS011;33202;48.512;-2.780;2023-10-19T10:50:29;19.40;;;4.10;;
47455;SDS011;33202;48.512;-2.780;2023-10-19T10:52:55;25.15;;;4.63;;
47455;SDS011;33202;48.512;-2.780;2023-10-19T10:55:24;26.25;;;5.18;;
47455;SDS011;33202;48.512;-2.780;2023-10-19T10:57:52;25.25;;;5.05;;
47455;SDS011;33202;48.512;-2.780;2023-10-19T11:00:18;22.10;;;3.90;;
47455;SDS011;33202;48.512;-2.780;2023-10-19T11:02:46;28.60;;;4.63;;
47455;SDS011;33202;48.512;-2.780;2023-10-19T11:05:13;26.48;;;5.68;;
47455;SDS011;33202;48.512;-2.780;2023-10-19T11:07:40;21.38;;;4.10;;
47455;SDS011;33202;48.512;-2.780;2023-10-19T11:10:06;21.92;;;4.28;;
47455;SDS011;33202;48.512;-2.780;2023-10-19T11:12:34;20.35;;;3.65;;
47455;SDS011;33202;48.512;-2.780;2023-10-19T11:15:02;22.55;;;4.00;;
47455;SDS011;33202;48.512;-2.780;2023-10-19T11:17:41;21.92;;;3.42;;
47455;SDS011;33202;48.512;-2.780;2023-10-19T11:20:07;18.23;;;3.97;;
47455;SDS011;33202;48.512;-2.780;2023-10-19T11:22:44;20.75;;;3.83;;
47455;SDS011;33202;48.512;-2.780;2023-10-19T11:25:20;20.83;;;3.67;;
47455;SDS011;33202;48.512;-2.780;2023-10-19T11:27:46;18.63;;;3.72;;
47455;SDS011;33202;48.512;-2.780;2023-10-19T11:30:12;16.63;;;3.57;;
47455;SDS011;33202;48.512;-2.780;2023-10-19T11:32:39;15.97;;;3.43;;
47455;SDS011;33202;48.512;-2.780;2023-10-19T11:35:05;20.70;;;4.90;;
47455;SDS011;33202;48.512;-2.780;2023-10-19T11:37:51;18.20;;;3.25;;
47455;SDS011;33202;48.512;-2.780;2023-10-19T11:40:18;20.45;;;3.80;;
47455;SDS011;33202;48.512;-2.780;2023-10-19T11:42:44;29.38;;;4.63;;
47455;SDS011;33202;48.512;-2.780;2023-10-19T11:45:10;20.33;;;4.63;;
47455;SDS011;33202;48.512;-2.780;2023-10-19T11:47:37;23.27;;;3.37;;
47455;SDS011;33202;48.512;-2.780;2023-10-19T11:50:03;18.73;;;3.70;;
47455;SDS011;33202;48.512;-2.780;2023-10-19T11:52:29;16.93;;;3.30;;
47455;SDS011;33202;48.512;-2.780;2023-10-19T11:54:56;19.83;;;4.15;;
47455;SDS011;33202;48.512;-2.780;2023-10-19T11:57:25;19.80;;;3.92;;
47455;SDS011;33202;48.512;-2.780;2023-10-19T11:59:51;22.67;;;4.20;;
47455;SDS011;33202;48.512;-2.780;2023-10-19T12:02:18;20.97;;;4.40;;
47455;SDS011;33202;48.512;-2.780;2023-10-19T12:04:44;20.13;;;4.57;;
47455;SDS011;33202;48.512;-2.780;2023-10-19T12:07:10;27.25;;;5.18;;
47455;SDS011;33202;48.512;-2.780;2023-10-19T12:09:37;19.67;;;4.20;;
47455;SDS011;33202;48.512;-2.780;2023-10-19T12:12:06;23.90;;;4.57;;
47455;SDS011;33202;48.512;-2.780;2023-10-19T12:14:32;23.50;;;4.53;;
47455;SDS011;33202;48.512;-2.780;2023-10-19T12:17:01;18.35;;;3.90;;
47455;SDS011;33202;48.512;-2.780;2023-10-19T12:19:29;17.60;;;3.65;;
47455;SDS011;33202;48.512;-2.780;2023-10-19T12:21:55;18.88;;;4.00;;
47455;SDS011;33202;48.512;-2.780;2023-10-19T12:24:21;21.47;;;3.87;;
47455;SDS011;33202;48.512;-2.780;2023-10-19T12:26:48;17.98;;;4.00;;
47455;SDS011;33202;48.512;-2.780;2023-10-19T12:29:14;20.63;;;3.50;;
47455;SDS011;33202;48.512;-2.780;2023-10-19T12:31:42;18.73;;;3.70;;
47455;SDS011;33202;48.512;-2.780;2023-10-19T12:34:08;22.13;;;3.80;;
47455;SDS011;33202;48.512;-2.780;2023-10-19T12:36:36;16.48;;;3.78;;
47455;SDS011;33202;48.512;-2.780;2023-10-19T12:39:02;13.07;;;3.22;;
47455;SDS011;33202;48.512;-2.780;2023-10-19T12:41:32;22.30;;;3.75;;
47455;SDS011;33202;48.512;-2.780;2023-10-19T12:43:58;19.83;;;4.57;;
47455;SDS011;33202;48.512;-2.780;2023-10-19T12:46:33;16.95;;;3.75;;
47455;SDS011;33202;48.512;-2.780;2023-10-19T12:49:01;19.63;;;3.55;;
47455;SDS011;33202;48.512;-2.780;2023-10-19T12:51:27;24.92;;;4.30;;
47455;SDS011;33202;48.512;-2.780;2023-10-19T12:56:21;19.92;;;3.88;;
47455;SDS011;33202;48.512;-2.780;2023-10-19T12:58:53;15.05;;;3.33;;
47455;SDS011;33202;48.512;-2.780;2023-10-19T13:01:19;16.27;;;3.40;;
47455;SDS011;33202;48.512;-2.780;2023-10-19T13:03:46;20.77;;;3.35;;
47455;SDS011;33202;48.512;-2.780;2023-10-19T13:06:14;20.77;;;3.88;;
47455;SDS011;33202;48.512;-2.780;2023-10-19T13:08:40;15.73;;;2.97;;
47455;SDS011;33202;48.512;-2.780;2023-10-19T13:11:07;20.60;;;3.72;;
47455;SDS011;33202;48.512;-2.780;2023-10-19T13:13:33;20.98;;;3.97;;
47455;SDS011;33202;48.512;-2.780;2023-10-19T13:16:03;20.30;;;3.75;;
47455;SDS011;33202;48.512;-2.780;2023-10-19T13:18:30;24.25;;;3.75;;
47455;SDS011;33202;48.512;-2.780;2023-10-19T13:20:58;18.63;;;3.58;;
47455;SDS011;33202;48.512;-2.780;2023-10-19T13:23:26;21.05;;;3.35;;
47455;SDS011;33202;48.512;-2.780;2023-10-19T13:25:53;21.58;;;4.13;;
47455;SDS011;33202;48.512;-2.780;2023-10-19T13:28:22;19.33;;;3.45;;
47455;SDS011;33202;48.512;-2.780;2023-10-19T13:33:15;21.38;;;3.53;;
47455;SDS011;33202;48.512;-2.780;2023-10-19T13:35:42;24.48;;;3.63;;
47455;SDS011;33202;48.512;-2.780;2023-10-19T13:38:08;18.77;;;3.83;;
47455;SDS011;33202;48.512;-2.780;2023-10-19T13:40:35;17.42;;;2.70;;
47455;SDS011;33202;48.512;-2.780;2023-10-19T13:43:01;20.27;;;3.22;;
47455;SDS011;33202;48.512;-2.780;2023-10-19T13:45:35;18.38;;;3.17;;
47455;SDS011;33202;48.512;-2.780;2023-10-19T13:48:04;18.35;;;2.75;;
47455;SDS011;33202;48.512;-2.780;2023-10-19T13:50:31;12.55;;;2.90;;
47455;SDS011;33202;48.512;-2.780;2023-10-19T13:52:57;13.35;;;2.33;;
47455;SDS011;33202;48.512;-2.780;2023-10-19T13:55:25;11.02;;;2.10;;
47455;SDS011;33202;48.512;-2.780;2023-10-19T13:57:51;12.50;;;2.42;;
47455;SDS011;33202;48.512;-2.780;2023-10-19T14:00:17;10.65;;;1.98;;
47455;SDS011;33202;48.512;-2.780;2023-10-19T14:02:55;10.50;;;2.10;;
47455;SDS011;33202;48.512;-2.780;2023-10-19T14:05:22;7.80;;;1.42;;
47455;SDS011;33202;48.512;-2.780;2023-10-19T14:07:51;8.88;;;1.35;;
47455;SDS011;33202;48.512;-2.780;2023-10-19T14:10:18;7.70;;;1.10;;
47455;SDS011;33202;48.512;-2.780;2023-10-19T14:12:47;6.97;;;1.50;;
47455;SDS011;33202;48.512;-2.780;2023-10-19T14:15:17;8.18;;;1.52;;
47455;SDS011;33202;48.512;-2.780;2023-10-19T14:17:44;10.40;;;1.63;;
47455;SDS011;33202;48.512;-2.780;2023-10-19T14:25:06;13.77;;;2.50;;
47455;SDS011;33202;48.512;-2.780;2023-10-19T14:27:36;11.95;;;2.28;;
47455;SDS011;33202;48.512;-2.780;2023-10-19T14:30:02;10.10;;;1.90;;
47455;SDS011;33202;48.512;-2.780;2023-10-19T14:32:28;12.15;;;1.95;;
47455;SDS011;33202;48.512;-2.780;2023-10-19T14:34:55;12.03;;;2.17;;
47455;SDS011;33202;48.512;-2.780;2023-10-19T14:37:21;16.45;;;2.28;;
47455;SDS011;33202;48.512;-2.780;2023-10-19T14:39:47;15.90;;;2.53;;
47455;SDS011;33202;48.512;-2.780;2023-10-19T14:42:13;9.35;;;1.92;;
47455;SDS011;33202;48.512;-2.780;2023-10-19T14:44:39;16.05;;;1.83;;
47455;SDS011;33202;48.512;-2.780;2023-10-19T14:47:05;8.95;;;1.85;;
47455;SDS011;33202;48.512;-2.780;2023-10-19T14:49:31;8.75;;;2.00;;
47455;SDS011;33202;48.512;-2.780;2023-10-19T14:51:57;8.38;;;1.95;;
47455;SDS011;33202;48.512;-2.780;2023-10-19T14:54:23;12.02;;;2.00;;